Time;durP1;ratioP1;P1;durP2;ratioP2;P2;SDS_P1;SDS_P2;PMS_P1;PMS_P2;Temp;Humidity;BMP_temperature;BMP_pressure;BME280_temperature;BME280_humidity;BME280_pressure;Samples;Min_cycle;Max_cycle;Signal;HPM_P1;HPM_P2
2022/11/09 00:01:22;;;;;;;14.30;7.77;;;;;;;;;;5003444;28;20294;-65
2022/11/09 00:03:53;;;;;;;13.40;6.87;;;;;;;;;;5015341;28;20643;-65
2022/11/09 00:06:19;;;;;;;13.93;7.77;;;;;;;;;;5023840;28;20533;-65
2022/11/09 00:08:46;;;;;;;13.83;7.50;;;;;;;;;;5009917;28;20212;-64
2022/11/09 00:11:13;;;;;;;15.83;8.30;;;;;;;;;;5022804;28;20193;-64
2022/11/09 00:13:40;;;;;;;14.77;8.93;;;;;;;;;;5009020;28;20195;-64
2022/11/09 00:16:07;;;;;;;12.93;8.30;;;;;;;;;;5018262;28;20269;-65
2022/11/09 00:18:34;;;;;;;14.67;7.50;;;;;;;;;;5024497;28;20196;-66
2022/11/09 00:21:05;;;;;;;13.03;7.00;;;;;;;;;;5016114;28;20253;-64
2022/11/09 00:23:32;;;;;;;11.30;6.60;;;;;;;;;;5015333;28;20202;-64
2022/11/09 00:25:59;;;;;;;13.03;7.93;;;;;;;;;;5012247;28;20192;-64
2022/11/09 00:28:26;;;;;;;12.53;7.90;;;;;;;;;;5011929;28;20699;-64
2022/11/09 00:30:59;;;;;;;13.70;7.43;;;;;;;;;;5027623;28;20191;-64
2022/11/09 00:33:26;;;;;;;14.07;8.33;;;;;;;;;;5022125;28;20200;-64
2022/11/09 00:35:53;;;;;;;12.10;7.47;;;;;;;;;;5013714;28;20195;-64
2022/11/09 00:38:19;;;;;;;13.60;7.00;;;;;;;;;;5012917;28;20215;-64
2022/11/09 00:40:46;;;;;;;13.33;7.53;;;;;;;;;;5011739;28;20204;-65
2022/11/09 00:43:13;;;;;;;14.63;8.77;;;;;;;;;;5011696;28;20223;-65
2022/11/09 00:45:40;;;;;;;13.77;7.70;;;;;;;;;;5030946;28;20194;-64
2022/11/09 00:48:07;;;;;;;13.07;7.30;;;;;;;;;;5031687;28;20230;-64
2022/11/09 00:50:34;;;;;;;11.07;7.53;;;;;;;;;;5015177;28;20218;-64
2022/11/09 00:53:00;;;;;;;11.07;6.50;;;;;;;;;;5030324;28;20231;-64
2022/11/09 00:55:27;;;;;;;13.23;6.90;;;;;;;;;;5025908;28;20664;-65
2022/11/09 00:57:54;;;;;;;14.27;7.03;;;;;;;;;;5025641;28;20235;-65
2022/11/09 01:00:22;;;;;;;12.70;7.63;;;;;;;;;;5011231;28;20204;-65
2022/11/09 01:02:49;;;;;;;10.40;6.43;;;;;;;;;;5011729;28;20267;-65
2022/11/09 01:05:17;;;;;;;13.50;6.23;;;;;;;;;;5011372;28;20532;-65
2022/11/09 01:07:44;;;;;;;13.07;6.97;;;;;;;;;;5012254;28;20188;-65
2022/11/09 01:10:11;;;;;;;11.60;7.30;;;;;;;;;;5022705;28;20297;-65
2022/11/09 01:12:38;;;;;;;10.87;7.53;;;;;;;;;;5032104;28;20192;-65
2022/11/09 01:15:06;;;;;;;9.53;5.23;;;;;;;;;;5029825;28;21078;-66
2022/11/09 01:17:33;;;;;;;12.03;7.67;;;;;;;;;;5030754;28;20246;-65
2022/11/09 01:19:59;;;;;;;10.33;6.60;;;;;;;;;;5025875;28;20195;-65
2022/11/09 01:22:26;;;;;;;11.67;7.60;;;;;;;;;;5016577;28;20203;-64
2022/11/09 01:24:53;;;;;;;9.77;6.70;;;;;;;;;;5020493;28;20180;-65
2022/11/09 01:27:22;;;;;;;10.50;5.87;;;;;;;;;;5011885;28;20208;-65
2022/11/09 01:29:49;;;;;;;12.37;7.43;;;;;;;;;;5012404;28;20219;-65
2022/11/09 01:32:15;;;;;;;11.40;6.90;;;;;;;;;;5011977;28;20191;-65
2022/11/09 01:34:42;;;;;;;11.20;7.10;;;;;;;;;;5012030;28;20559;-65
2022/11/09 01:37:09;;;;;;;14.67;7.67;;;;;;;;;;5026636;28;20218;-65
2022/11/09 01:39:36;;;;;;;9.50;6.97;;;;;;;;;;5013471;28;20192;-65
2022/11/09 01:42:02;;;;;;;12.93;7.63;;;;;;;;;;5012368;28;20192;-65
2022/11/09 01:44:29;;;;;;;12.23;7.70;;;;;;;;;;5011243;28;20196;-65
2022/11/09 01:46:57;;;;;;;13.53;7.33;;;;;;;;;;5010684;28;20202;-65
2022/11/09 01:49:42;;;;;;;13.83;7.73;;;;;;;;;;5009286;28;20676;-65
2022/11/09 01:52:11;;;;;;;13.17;7.43;;;;;;;;;;5015990;28;20232;-65
2022/11/09 01:54:41;;;;;;;13.43;7.70;;;;;;;;;;5020400;28;20294;-65
2022/11/09 01:57:13;;;;;;;15.53;8.47;;;;;;;;;;5011611;28;20192;-65
2022/11/09 01:59:41;;;;;;;12.53;7.77;;;;;;;;;;5025699;28;20189;-65
2022/11/09 02:02:08;;;;;;;16.77;8.13;;;;;;;;;;5018174;28;20192;-65
2022/11/09 02:04:49;;;;;;;13.27;7.83;;;;;;;;;;5019007;28;20203;-65
2022/11/09 02:07:16;;;;;;;13.50;8.30;;;;;;;;;;5022181;28;20199;-65
2022/11/09 02:09:44;;;;;;;14.40;8.00;;;;;;;;;;5024593;28;20224;-66
2022/11/09 02:12:11;;;;;;;12.70;7.80;;;;;;;;;;5012191;28;20196;-65
2022/11/09 02:14:38;;;;;;;14.23;8.60;;;;;;;;;;5008349;28;20225;-65
2022/11/09 02:17:05;;;;;;;12.47;8.10;;;;;;;;;;4993583;28;20196;-65
2022/11/09 02:19:32;;;;;;;12.50;8.50;;;;;;;;;;5011744;28;20279;-65
2022/11/09 02:21:59;;;;;;;13.23;8.87;;;;;;;;;;5025562;28;20547;-65
2022/11/09 02:24:25;;;;;;;16.00;8.43;;;;;;;;;;5009599;28;21012;-65
2022/11/09 02:26:52;;;;;;;14.50;8.47;;;;;;;;;;5010557;28;20283;-64
2022/11/09 02:29:21;;;;;;;13.40;8.30;;;;;;;;;;4993493;28;20303;-65
2022/11/09 02:31:56;;;;;;;14.53;8.50;;;;;;;;;;5021314;28;20222;-65
2022/11/09 02:34:23;;;;;;;13.80;8.70;;;;;;;;;;5025963;28;20250;-65
2022/11/09 02:36:49;;;;;;;15.47;8.40;;;;;;;;;;5009165;28;20204;-65
2022/11/09 02:39:21;;;;;;;12.53;8.37;;;;;;;;;;5009292;28;20206;-65
2022/11/09 02:41:55;;;;;;;13.53;8.90;;;;;;;;;;5009744;28;20192;-65
2022/11/09 02:44:23;;;;;;;15.63;9.07;;;;;;;;;;4993351;28;20200;-65
2022/11/09 02:46:50;;;;;;;16.90;9.03;;;;;;;;;;5009550;28;20184;-65
2022/11/09 02:49:17;;;;;;;15.27;8.57;;;;;;;;;;5008506;28;20247;-65
2022/11/09 02:51:44;;;;;;;18.33;9.33;;;;;;;;;;5010630;28;20271;-65
2022/11/09 02:54:11;;;;;;;14.13;8.90;;;;;;;;;;5009458;28;20196;-65
2022/11/09 02:56:39;;;;;;;14.33;8.67;;;;;;;;;;5016590;28;20188;-65
2022/11/09 02:59:07;;;;;;;14.13;8.90;;;;;;;;;;5016798;28;20208;-65
2022/11/09 03:01:34;;;;;;;11.43;8.70;;;;;;;;;;5008667;28;20575;-65
2022/11/09 03:04:01;;;;;;;16.10;9.03;;;;;;;;;;5025520;28;20196;-65
2022/11/09 03:06:33;;;;;;;12.30;8.43;;;;;;;;;;5009645;28;20188;-65
2022/11/09 03:09:18;;;;;;;16.83;8.57;;;;;;;;;;5009003;28;20294;-65
2022/11/09 03:11:45;;;;;;;14.47;9.00;;;;;;;;;;5009267;28;20204;-65
2022/11/09 03:14:14;;;;;;;11.77;7.73;;;;;;;;;;5007983;28;20391;-65
2022/11/09 03:16:47;;;;;;;13.23;8.30;;;;;;;;;;5010217;28;20184;-65
2022/11/09 03:19:17;;;;;;;14.07;8.13;;;;;;;;;;5008594;28;20746;-65
2022/11/09 03:21:46;;;;;;;14.13;8.13;;;;;;;;;;5008589;28;20234;-65
2022/11/09 03:24:13;;;;;;;12.30;7.77;;;;;;;;;;5010145;28;20279;-65
2022/11/09 03:26:40;;;;;;;13.33;8.37;;;;;;;;;;5008826;28;20200;-64
2022/11/09 03:29:08;;;;;;;15.87;8.87;;;;;;;;;;5007757;28;20212;-65
2022/11/09 03:31:35;;;;;;;17.27;10.60;;;;;;;;;;5013284;28;20448;-65
2022/11/09 03:34:05;;;;;;;14.47;8.90;;;;;;;;;;5018172;28;20227;-66
2022/11/09 03:36:34;;;;;;;12.80;8.47;;;;;;;;;;5009864;28;20235;-65
2022/11/09 03:39:00;;;;;;;12.13;8.93;;;;;;;;;;5014399;28;20207;-65
2022/11/09 03:41:27;;;;;;;13.37;9.10;;;;;;;;;;5026798;28;20206;-65
2022/11/09 03:43:54;;;;;;;13.90;8.70;;;;;;;;;;5024858;28;20238;-66
2022/11/09 03:46:21;;;;;;;12.77;8.17;;;;;;;;;;5009753;28;20193;-65
2022/11/09 03:49:05;;;;;;;13.60;8.87;;;;;;;;;;5018296;28;20285;-65
2022/11/09 03:51:32;;;;;;;13.60;9.17;;;;;;;;;;5008008;28;20188;-65
2022/11/09 03:53:59;;;;;;;17.17;9.23;;;;;;;;;;5008957;28;20909;-65
2022/11/09 03:56:25;;;;;;;15.43;9.37;;;;;;;;;;5023800;28;20195;-65
2022/11/09 03:58:52;;;;;;;16.73;9.80;;;;;;;;;;5008950;28;20199;-65
2022/11/09 04:01:36;;;;;;;13.33;9.23;;;;;;;;;;5012600;28;20176;-69
2022/11/09 04:04:04;;;;;;;18.17;9.80;;;;;;;;;;5011922;28;20192;-71
2022/11/09 04:06:31;;;;;;;15.40;9.60;;;;;;;;;;5016986;28;20273;-68
2022/11/09 04:08:58;;;;;;;15.10;9.27;;;;;;;;;;5005396;28;20204;-71
2022/11/09 04:11:25;;;;;;;17.00;10.13;;;;;;;;;;5005063;28;20254;-70
2022/11/09 04:14:09;;;;;;;16.43;9.00;;;;;;;;;;5019385;28;20179;-72
2022/11/09 04:16:35;;;;;;;17.80;10.17;;;;;;;;;;5001796;28;20196;-69
2022/11/09 04:19:20;;;;;;;13.50;8.90;;;;;;;;;;5004691;28;20176;-70
2022/11/09 04:21:46;;;;;;;15.73;9.17;;;;;;;;;;5012216;28;20200;-69
2022/11/09 04:24:31;;;;;;;16.30;9.53;;;;;;;;;;5018155;28;20956;-71
2022/11/09 04:26:57;;;;;;;17.73;10.13;;;;;;;;;;5014014;28;20207;-69
2022/11/09 04:29:24;;;;;;;15.20;10.03;;;;;;;;;;4972898;28;20220;-68
2022/11/09 04:31:51;;;;;;;20.57;11.13;;;;;;;;;;5011537;28;20196;-71
2022/11/09 04:34:18;;;;;;;19.73;11.57;;;;;;;;;;5006591;28;20194;-68
2022/11/09 04:36:44;;;;;;;17.93;10.67;;;;;;;;;;4996267;28;20192;-68
2022/11/09 04:39:11;;;;;;;21.43;11.47;;;;;;;;;;5005712;28;20196;-69
2022/11/09 04:41:38;;;;;;;20.73;11.97;;;;;;;;;;5019350;28;20195;-69
2022/11/09 04:44:05;;;;;;;16.17;10.93;;;;;;;;;;5005758;28;20177;-69
2022/11/09 04:46:31;;;;;;;16.20;9.60;;;;;;;;;;5006073;28;20828;-69
2022/11/09 04:48:58;;;;;;;18.13;10.13;;;;;;;;;;5033069;28;20261;-69
2022/11/09 04:51:42;;;;;;;17.67;10.33;;;;;;;;;;5032717;28;20187;-69
2022/11/09 04:54:09;;;;;;;17.23;10.57;;;;;;;;;;5024855;28;20211;-67
2022/11/09 04:56:36;;;;;;;15.03;10.57;;;;;;;;;;5021554;28;20271;-67
2022/11/09 04:59:03;;;;;;;18.50;10.27;;;;;;;;;;5025958;28;20708;-68
2022/11/09 05:01:29;;;;;;;17.27;10.13;;;;;;;;;;5019223;28;20230;-67
2022/11/09 05:03:56;;;;;;;17.53;10.17;;;;;;;;;;5008107;28;20196;-68
2022/11/09 05:06:32;;;;;;;18.37;10.43;;;;;;;;;;5009482;28;21441;-69
2022/11/09 05:09:05;;;;;;;16.07;10.93;;;;;;;;;;5010715;28;20215;-69
2022/11/09 05:11:33;;;;;;;15.90;10.17;;;;;;;;;;5006143;28;20674;-68
2022/11/09 05:13:59;;;;;;;20.97;11.27;;;;;;;;;;5009569;28;20188;-69
2022/11/09 05:16:29;;;;;;;16.93;10.67;;;;;;;;;;5009347;28;20279;-68
2022/11/09 05:18:56;;;;;;;17.57;11.13;;;;;;;;;;5008785;28;20192;-68
2022/11/09 05:21:23;;;;;;;15.10;10.87;;;;;;;;;;5018255;28;20593;-68
2022/11/09 05:23:58;;;;;;;17.77;10.57;;;;;;;;;;5028181;28;20188;-68
2022/11/09 05:26:28;;;;;;;18.13;11.03;;;;;;;;;;5010913;28;20188;-67
2022/11/09 05:28:56;;;;;;;16.87;11.50;;;;;;;;;;5027276;28;20180;-68
2022/11/09 05:31:23;;;;;;;18.00;11.53;;;;;;;;;;5021061;28;20197;-67
2022/11/09 05:34:09;;;;;;;18.80;10.77;;;;;;;;;;5019357;28;20675;-67
2022/11/09 05:36:35;;;;;;;21.07;11.57;;;;;;;;;;5016955;28;20191;-68
2022/11/09 05:39:02;;;;;;;17.70;11.37;;;;;;;;;;5021219;28;20198;-68
2022/11/09 05:41:29;;;;;;;17.80;11.27;;;;;;;;;;5026107;28;20184;-68
2022/11/09 05:43:56;;;;;;;17.63;10.40;;;;;;;;;;5029863;28;20192;-68
2022/11/09 05:46:24;;;;;;;17.07;11.00;;;;;;;;;;5033026;28;20187;-68
2022/11/09 05:48:50;;;;;;;17.80;11.23;;;;;;;;;;5033475;28;20275;-67
2022/11/09 05:51:17;;;;;;;16.60;10.40;;;;;;;;;;5015620;28;20283;-68
2022/11/09 05:53:44;;;;;;;17.87;11.17;;;;;;;;;;5028762;28;20220;-68
2022/11/09 05:56:12;;;;;;;21.60;11.33;;;;;;;;;;5021162;28;20195;-68
2022/11/09 05:58:40;;;;;;;17.50;11.40;;;;;;;;;;5029424;28;20195;-68
2022/11/09 06:01:07;;;;;;;18.03;10.73;;;;;;;;;;5027509;28;20192;-68
2022/11/09 06:03:34;;;;;;;16.43;11.03;;;;;;;;;;5023566;28;20200;-68
2022/11/09 06:06:02;;;;;;;19.07;11.90;;;;;;;;;;5008823;28;20777;-68
2022/11/09 06:08:34;;;;;;;20.40;12.60;;;;;;;;;;5018833;28;20286;-67
2022/11/09 06:11:01;;;;;;;23.83;12.93;;;;;;;;;;5014413;28;20225;-69
2022/11/09 06:13:28;;;;;;;17.67;10.57;;;;;;;;;;5027022;28;20202;-68
2022/11/09 06:15:55;;;;;;;22.37;12.60;;;;;;;;;;5023806;28;20269;-68
2022/11/09 06:18:23;;;;;;;20.33;13.27;;;;;;;;;;5014271;28;20210;-68
2022/11/09 06:20:51;;;;;;;21.70;12.70;;;;;;;;;;4999844;28;20224;-68
2022/11/09 06:23:18;;;;;;;21.93;14.07;;;;;;;;;;5009562;28;20243;-65
2022/11/09 06:25:45;;;;;;;20.70;13.13;;;;;;;;;;5010583;28;20719;-65
2022/11/09 06:28:12;;;;;;;20.17;13.13;;;;;;;;;;5011393;28;20280;-64
2022/11/09 06:30:38;;;;;;;22.13;13.60;;;;;;;;;;5011145;28;20212;-65
2022/11/09 06:33:05;;;;;;;21.17;13.20;;;;;;;;;;5012075;28;20945;-65
2022/11/09 06:35:32;;;;;;;22.97;12.73;;;;;;;;;;5011681;28;20196;-66
2022/11/09 06:37:59;;;;;;;24.10;13.07;;;;;;;;;;5010844;28;20185;-64
2022/11/09 06:40:43;;;;;;;25.13;14.00;;;;;;;;;;5022015;28;20214;-68
2022/11/09 06:43:09;;;;;;;21.87;13.20;;;;;;;;;;5027377;28;20199;-69
2022/11/09 06:45:54;;;;;;;19.23;12.80;;;;;;;;;;5027473;28;20643;-67
2022/11/09 06:48:21;;;;;;;21.30;12.60;;;;;;;;;;5027969;28;20204;-68
2022/11/09 06:50:48;;;;;;;20.00;13.43;;;;;;;;;;5022857;28;20215;-68
2022/11/09 06:53:15;;;;;;;19.47;12.50;;;;;;;;;;5035370;28;20222;-67
2022/11/09 06:55:42;;;;;;;22.53;13.87;;;;;;;;;;4992234;28;20196;-67
2022/11/09 06:58:26;;;;;;;22.03;13.87;;;;;;;;;;5007958;28;20563;-67
2022/11/09 07:00:53;;;;;;;23.47;13.90;;;;;;;;;;5007714;28;20266;-67
2022/11/09 07:03:20;;;;;;;22.07;12.97;;;;;;;;;;5029429;28;20553;-68
2022/11/09 07:05:48;;;;;;;21.33;13.30;;;;;;;;;;5008492;28;20270;-68
2022/11/09 07:08:15;;;;;;;23.80;13.87;;;;;;;;;;5009247;28;20181;-68
2022/11/09 07:10:42;;;;;;;24.43;13.97;;;;;;;;;;5010255;28;20220;-69
2022/11/09 07:13:09;;;;;;;25.50;13.07;;;;;;;;;;5008577;28;20188;-68
2022/11/09 07:15:36;;;;;;;20.57;11.77;;;;;;;;;;5009467;28;20198;-67
2022/11/09 07:18:03;;;;;;;23.60;14.70;;;;;;;;;;5010627;28;20303;-66
2022/11/09 07:20:30;;;;;;;22.83;13.97;;;;;;;;;;5010515;28;20165;-68
2022/11/09 07:22:57;;;;;;;22.37;14.47;;;;;;;;;;5009865;28;20219;-68
2022/11/09 07:25:26;;;;;;;24.03;14.80;;;;;;;;;;5008826;28;20184;-67
2022/11/09 07:27:53;;;;;;;22.57;13.33;;;;;;;;;;5009014;28;20208;-66
2022/11/09 07:30:19;;;;;;;21.83;14.00;;;;;;;;;;5022562;28;20203;-66
2022/11/09 07:32:47;;;;;;;21.43;13.27;;;;;;;;;;5029787;28;20195;-66
2022/11/09 07:35:33;;;;;;;19.93;14.10;;;;;;;;;;5009384;28;20195;-67
2022/11/09 07:38:00;;;;;;;20.17;13.10;;;;;;;;;;5009637;28;20675;-66
2022/11/09 07:40:27;;;;;;;23.00;13.40;;;;;;;;;;5010034;28;20558;-66
2022/11/09 07:42:58;;;;;;;22.80;13.77;;;;;;;;;;5009983;28;20222;-66
2022/11/09 07:45:25;;;;;;;22.60;14.20;;;;;;;;;;5009899;28;20957;-66
2022/11/09 07:47:58;;;;;;;20.90;14.07;;;;;;;;;;5010120;28;20552;-66
2022/11/09 07:50:25;;;;;;;29.67;14.63;;;;;;;;;;5008497;28;20218;-66
2022/11/09 07:52:53;;;;;;;22.50;13.37;;;;;;;;;;5010676;28;20254;-66
2022/11/09 07:55:20;;;;;;;27.03;13.90;;;;;;;;;;5029926;28;20555;-66
2022/11/09 07:58:06;;;;;;;22.60;14.13;;;;;;;;;;5029609;28;20171;-66
2022/11/09 08:00:33;;;;;;;23.03;13.70;;;;;;;;;;5029612;28;20198;-67
2022/11/09 08:03:18;;;;;;;20.33;13.40;;;;;;;;;;5028660;28;20289;-66
2022/11/09 08:05:45;;;;;;;18.53;11.43;;;;;;;;;;5027096;28;20610;-67
2022/11/09 08:08:14;;;;;;;15.83;11.33;;;;;;;;;;5027454;28;20191;-66
2022/11/09 08:10:41;;;;;;;19.00;11.30;;;;;;;;;;5008011;28;20258;-67
2022/11/09 08:13:12;;;;;;;18.53;11.20;;;;;;;;;;5009601;28;20197;-66
2022/11/09 08:15:39;;;;;;;18.17;11.60;;;;;;;;;;5024735;28;20192;-67
2022/11/09 08:18:07;;;;;;;18.10;11.57;;;;;;;;;;5008592;28;20622;-67
2022/11/09 08:20:34;;;;;;;20.20;11.80;;;;;;;;;;5009682;28;20616;-67
2022/11/09 08:23:00;;;;;;;19.43;12.10;;;;;;;;;;5009456;28;20192;-67
2022/11/09 08:25:31;;;;;;;26.07;11.67;;;;;;;;;;5024226;28;20192;-67
2022/11/09 08:27:58;;;;;;;18.97;10.80;;;;;;;;;;5008008;28;20196;-68
2022/11/09 08:30:24;;;;;;;18.70;10.50;;;;;;;;;;5009320;28;20713;-67
2022/11/09 08:32:51;;;;;;;19.33;11.80;;;;;;;;;;5009918;28;20586;-67
2022/11/09 08:35:19;;;;;;;17.93;11.03;;;;;;;;;;5043785;28;20297;-67
2022/11/09 08:37:46;;;;;;;14.77;10.60;;;;;;;;;;5028801;28;20191;-67
2022/11/09 08:40:14;;;;;;;18.30;11.57;;;;;;;;;;5029305;28;20187;-67
2022/11/09 08:42:44;;;;;;;16.00;10.87;;;;;;;;;;5028791;28;20192;-67
2022/11/09 08:45:11;;;;;;;16.17;10.50;;;;;;;;;;5029591;28;20198;-67
2022/11/09 08:47:38;;;;;;;18.87;11.37;;;;;;;;;;5032566;28;20582;-67
2022/11/09 08:50:06;;;;;;;18.73;10.93;;;;;;;;;;5017874;28;20203;-67
2022/11/09 08:52:32;;;;;;;16.83;11.37;;;;;;;;;;5013064;28;20215;-67
2022/11/09 08:54:59;;;;;;;20.23;11.63;;;;;;;;;;5012898;28;20175;-67
2022/11/09 08:57:26;;;;;;;18.30;11.83;;;;;;;;;;5012691;28;20757;-67
2022/11/09 08:59:52;;;;;;;17.40;11.67;;;;;;;;;;5013530;28;20180;-67
2022/11/09 09:02:20;;;;;;;17.07;11.83;;;;;;;;;;5013173;28;20586;-67
2022/11/09 09:04:46;;;;;;;22.23;12.40;;;;;;;;;;5012739;28;20192;-67
2022/11/09 09:07:15;;;;;;;19.47;11.30;;;;;;;;;;5012939;28;20188;-67
2022/11/09 09:09:42;;;;;;;20.17;10.77;;;;;;;;;;5027454;28;20203;-67
2022/11/09 09:12:09;;;;;;;16.83;10.50;;;;;;;;;;5013080;28;20192;-67
2022/11/09 09:14:36;;;;;;;16.27;10.80;;;;;;;;;;5012169;28;20564;-67
2022/11/09 09:17:02;;;;;;;17.50;10.33;;;;;;;;;;5012569;28;20219;-67
2022/11/09 09:19:29;;;;;;;15.90;10.33;;;;;;;;;;5027463;28;20215;-67
2022/11/09 09:21:57;;;;;;;15.63;10.10;;;;;;;;;;5012678;28;20188;-67
2022/11/09 09:24:23;;;;;;;16.17;11.17;;;;;;;;;;5012222;28;20224;-67
2022/11/09 09:26:50;;;;;;;14.27;10.00;;;;;;;;;;5012743;28;20207;-67
2022/11/09 09:29:17;;;;;;;14.63;10.10;;;;;;;;;;5012574;28;20223;-67
2022/11/09 09:31:44;;;;;;;19.40;10.37;;;;;;;;;;5012146;28;20216;-67
2022/11/09 09:34:11;;;;;;;14.33;8.73;;;;;;;;;;5022175;28;20202;-67
2022/11/09 09:36:38;;;;;;;16.13;9.20;;;;;;;;;;5032043;28;20268;-67
2022/11/09 09:39:11;;;;;;;12.77;9.07;;;;;;;;;;5032162;28;20187;-67
2022/11/09 09:41:40;;;;;;;13.47;9.10;;;;;;;;;;5031996;28;20203;-67
2022/11/09 09:44:10;;;;;;;16.33;10.00;;;;;;;;;;5031720;28;20191;-67
2022/11/09 09:46:37;;;;;;;14.40;9.33;;;;;;;;;;5031884;28;20191;-67
2022/11/09 09:49:15;;;;;;;19.07;10.40;;;;;;;;;;5011679;28;20202;-67
2022/11/09 09:51:53;;;;;;;16.33;10.23;;;;;;;;;;5027013;28;20306;-67
2022/11/09 09:54:22;;;;;;;16.60;10.10;;;;;;;;;;5011542;28;20250;-67
2022/11/09 09:56:49;;;;;;;14.70;9.47;;;;;;;;;;5022443;28;20202;-67
2022/11/09 09:59:21;;;;;;;15.13;9.87;;;;;;;;;;5030949;28;20199;-67
2022/11/09 10:01:48;;;;;;;15.50;10.47;;;;;;;;;;5027802;28;20575;-67
2022/11/09 10:04:15;;;;;;;14.70;10.00;;;;;;;;;;5019875;28;20192;-67
2022/11/09 10:06:57;;;;;;;15.20;10.77;;;;;;;;;;5015300;28;20676;-67
2022/11/09 10:09:24;;;;;;;17.33;10.67;;;;;;;;;;5026141;28;20191;-67
2022/11/09 10:11:57;;;;;;;16.10;10.47;;;;;;;;;;5010626;28;20666;-67
2022/11/09 10:14:33;;;;;;;15.40;10.17;;;;;;;;;;5011090;28;20572;-67
2022/11/09 10:17:05;;;;;;;16.63;10.80;;;;;;;;;;5011528;28;20196;-67
2022/11/09 10:19:52;;;;;;;16.23;10.53;;;;;;;;;;5010686;28;21569;-67
2022/11/09 10:22:21;;;;;;;17.63;10.63;;;;;;;;;;5010011;28;20208;-67
2022/11/09 10:24:51;;;;;;;16.20;10.87;;;;;;;;;;5026294;28;20184;-67
2022/11/09 10:27:43;;;;;;;17.27;10.63;;;;;;;;;;5024051;28;20199;-67
2022/11/09 10:30:11;;;;;;;15.13;10.10;;;;;;;;;;5011256;28;20254;-67
2022/11/09 10:32:38;;;;;;;16.57;10.47;;;;;;;;;;5011339;28;20267;-67
2022/11/09 10:35:25;;;;;;;14.37;10.00;;;;;;;;;;5043323;28;20603;-67
2022/11/09 10:38:12;;;;;;;16.03;10.90;;;;;;;;;;5011370;28;20176;-67
2022/11/09 10:40:48;;;;;;;15.27;10.43;;;;;;;;;;5011208;28;20188;-67
2022/11/09 10:43:51;;;;;;;15.20;10.60;;;;;;;;;;5011212;28;20214;-67
2022/11/09 10:46:56;;;;;;;18.23;9.97;;;;;;;;;;5010016;28;20199;-66
2022/11/09 10:50:15;;;;;;;15.10;10.30;;;;;;;;;;5011058;28;20599;-65
2022/11/09 10:53:07;;;;;;;16.50;10.40;;;;;;;;;;5010544;28;20242;-67
2022/11/09 10:56:14;;;;;;;17.10;10.80;;;;;;;;;;5010961;28;20187;-68
2022/11/09 10:59:25;;;;;;;17.07;10.83;;;;;;;;;;5009907;28;20852;-66
2022/11/09 11:02:41;;;;;;;16.30;10.30;;;;;;;;;;5010453;28;20932;-70
2022/11/09 11:05:28;;;;;;;15.70;10.40;;;;;;;;;;5010383;28;20323;-67
2022/11/09 11:08:36;;;;;;;16.43;10.63;;;;;;;;;;5009375;28;20215;-67
2022/11/09 11:11:21;;;;;;;16.77;10.70;;;;;;;;;;5009812;28;20235;-67
2022/11/09 11:14:22;;;;;;;18.37;10.63;;;;;;;;;;5010443;28;20886;-67
2022/11/09 11:17:23;;;;;;;13.47;9.37;;;;;;;;;;5010516;28;20212;-67
2022/11/09 11:20:28;;;;;;;15.03;10.97;;;;;;;;;;5010271;28;20281;-67
2022/11/09 11:23:13;;;;;;;20.47;10.70;;;;;;;;;;5010417;28;20222;-67
2022/11/09 11:26:14;;;;;;;17.70;10.23;;;;;;;;;;5024814;28;20333;-67
2022/11/09 11:29:00;;;;;;;19.10;12.37;;;;;;;;;;5043297;28;20689;-67
2022/11/09 11:31:45;;;;;;;18.03;11.67;;;;;;;;;;5029714;28;20223;-67
2022/11/09 11:34:30;;;;;;;17.27;11.10;;;;;;;;;;5017429;28;20250;-67
2022/11/09 11:37:34;;;;;;;17.00;10.10;;;;;;;;;;5009244;28;20198;-66
2022/11/09 11:40:22;;;;;;;14.33;9.70;;;;;;;;;;5009899;28;20749;-66
2022/11/09 11:43:11;;;;;;;15.80;10.00;;;;;;;;;;5019450;28;20202;-67
2022/11/09 11:46:16;;;;;;;17.73;9.97;;;;;;;;;;5029734;28;20265;-66
2022/11/09 11:49:20;;;;;;;14.27;9.20;;;;;;;;;;5029383;28;20202;-66
2022/11/09 11:52:10;;;;;;;15.50;10.40;;;;;;;;;;5029265;28;20222;-66
2022/11/09 11:54:55;;;;;;;15.93;9.70;;;;;;;;;;5029449;28;20187;-66
2022/11/09 11:57:44;;;;;;;17.93;10.63;;;;;;;;;;5029516;28;20253;-66
2022/11/09 12:00:29;;;;;;;15.80;9.50;;;;;;;;;;5029441;28;20594;-66
2022/11/09 12:03:34;;;;;;;17.47;9.50;;;;;;;;;;5023710;28;20203;-67
2022/11/09 12:06:29;;;;;;;16.53;10.60;;;;;;;;;;5009615;28;20266;-66
2022/11/09 12:09:15;;;;;;;13.50;8.60;;;;;;;;;;5010006;28;20203;-67
2022/11/09 12:12:05;;;;;;;16.97;10.53;;;;;;;;;;5008923;28;20305;-67
2022/11/09 12:14:55;;;;;;;15.40;9.63;;;;;;;;;;5023115;28;20560;-66
2022/11/09 12:17:41;;;;;;;17.50;10.33;;;;;;;;;;5009953;28;20556;-66
2022/11/09 12:20:49;;;;;;;14.43;8.60;;;;;;;;;;5009591;28;20202;-66
2022/11/09 12:23:59;;;;;;;18.97;10.37;;;;;;;;;;5013899;28;20203;-66
2022/11/09 12:26:50;;;;;;;15.77;9.67;;;;;;;;;;5026345;28;20281;-66
2022/11/09 12:29:56;;;;;;;16.90;10.70;;;;;;;;;;5014332;28;20211;-66
2022/11/09 12:33:03;;;;;;;18.13;11.70;;;;;;;;;;5013370;28;20682;-66
2022/11/09 12:35:51;;;;;;;18.07;11.53;;;;;;;;;;5013300;28;20791;-66
2022/11/09 12:38:45;;;;;;;19.07;12.10;;;;;;;;;;5026206;28;20207;-65
2022/11/09 12:41:32;;;;;;;16.67;10.87;;;;;;;;;;5024113;28;20235;-66
2022/11/09 12:44:18;;;;;;;16.77;11.57;;;;;;;;;;5014770;28;20222;-65
2022/11/09 12:47:23;;;;;;;17.40;11.67;;;;;;;;;;5018363;28;20198;-65
2022/11/09 12:50:18;;;;;;;19.03;11.67;;;;;;;;;;5029519;28;20614;-66
2022/11/09 12:53:23;;;;;;;18.23;11.93;;;;;;;;;;5030396;28;20229;-64
2022/11/09 12:56:16;;;;;;;20.27;12.80;;;;;;;;;;5033934;28;20206;-65
2022/11/09 12:59:21;;;;;;;18.77;11.77;;;;;;;;;;5027119;28;20211;-66
2022/11/09 13:02:13;;;;;;;19.50;12.10;;;;;;;;;;5031181;28;20283;-66
2022/11/09 13:05:26;;;;;;;23.37;12.37;;;;;;;;;;5034106;28;20203;-65
2022/11/09 13:08:16;;;;;;;19.57;13.30;;;;;;;;;;5033179;28;20286;-65
2022/11/09 13:11:17;;;;;;;18.93;12.40;;;;;;;;;;5033967;28;20214;-65
2022/11/09 13:14:21;;;;;;;18.97;13.13;;;;;;;;;;5033921;28;20550;-66
2022/11/09 13:17:24;;;;;;;18.73;10.70;;;;;;;;;;5020284;28;20725;-66
2022/11/09 13:20:29;;;;;;;21.67;13.50;;;;;;;;;;5034414;28;20253;-65
2022/11/09 13:23:35;;;;;;;22.83;12.90;;;;;;;;;;5024947;28;20272;-65
2022/11/09 13:26:47;;;;;;;23.67;14.20;;;;;;;;;;5013677;28;20207;-65
2022/11/09 13:29:50;;;;;;;18.53;12.47;;;;;;;;;;5014351;28;20195;-65
2022/11/09 13:32:41;;;;;;;20.07;12.77;;;;;;;;;;5021894;28;20324;-65
2022/11/09 13:35:39;;;;;;;22.83;14.57;;;;;;;;;;5018044;28;20206;-65
2022/11/09 13:38:25;;;;;;;20.00;14.47;;;;;;;;;;5014137;28;20202;-65
2022/11/09 13:41:28;;;;;;;17.60;12.73;;;;;;;;;;5013991;28;20250;-65
2022/11/09 13:44:19;;;;;;;23.13;14.73;;;;;;;;;;5014110;28;20206;-65
2022/11/09 13:47:23;;;;;;;24.50;15.00;;;;;;;;;;5013370;28;20250;-65
2022/11/09 13:50:41;;;;;;;24.73;15.43;;;;;;;;;;5011805;28;20214;-65
2022/11/09 13:53:49;;;;;;;22.33;12.87;;;;;;;;;;5025718;28;20256;-65
2022/11/09 13:56:36;;;;;;;22.57;14.90;;;;;;;;;;5032572;28;20203;-65
2022/11/09 13:59:33;;;;;;;23.60;15.07;;;;;;;;;;5023363;28;20209;-65
2022/11/09 14:02:23;;;;;;;21.17;12.20;;;;;;;;;;5032865;28;20199;-65
2022/11/09 14:05:26;;;;;;;18.87;13.07;;;;;;;;;;5023937;28;20229;-65
2022/11/09 14:08:15;;;;;;;19.90;13.23;;;;;;;;;;5033639;28;20207;-65
2022/11/09 14:11:20;;;;;;;20.10;13.40;;;;;;;;;;5032514;28;20219;-65
2022/11/09 14:14:10;;;;;;;22.60;13.30;;;;;;;;;;5033359;28;20668;-65
2022/11/09 14:17:19;;;;;;;20.60;12.63;;;;;;;;;;5032831;28;20570;-65
2022/11/09 14:20:05;;;;;;;19.90;12.57;;;;;;;;;;5032311;28;20211;-65
2022/11/09 14:22:55;;;;;;;20.33;12.57;;;;;;;;;;5012181;28;20210;-65
2022/11/09 14:25:40;;;;;;;20.57;13.00;;;;;;;;;;5011524;28;20209;-65
2022/11/09 14:28:43;;;;;;;19.17;13.23;;;;;;;;;;5022243;28;20666;-65
2022/11/09 14:31:29;;;;;;;19.00;12.50;;;;;;;;;;5011032;28;20223;-65
2022/11/09 14:34:15;;;;;;;20.37;12.10;;;;;;;;;;5021787;28;20333;-65
2022/11/09 14:37:01;;;;;;;19.27;12.43;;;;;;;;;;5030645;28;20215;-65
2022/11/09 14:39:51;;;;;;;19.50;13.60;;;;;;;;;;5030729;28;20203;-65
2022/11/09 14:42:36;;;;;;;21.63;13.60;;;;;;;;;;5029977;28;20198;-64
2022/11/09 14:45:29;;;;;;;19.90;13.53;;;;;;;;;;5030379;28;20210;-66
2022/11/09 14:48:17;;;;;;;21.30;12.83;;;;;;;;;;5030060;28;20558;-66
2022/11/09 14:51:04;;;;;;;17.13;9.90;;;;;;;;;;5031022;28;20201;-66
2022/11/09 14:53:49;;;;;;;19.10;13.03;;;;;;;;;;5030493;28;20276;-67
2022/11/09 14:56:35;;;;;;;21.77;14.43;;;;;;;;;;5036548;28;20293;-66
2022/11/09 14:59:25;;;;;;;19.80;13.50;;;;;;;;;;5030732;28;20309;-66
2022/11/09 15:02:19;;;;;;;18.27;11.77;;;;;;;;;;5030394;28;20194;-66
2022/11/09 15:05:05;;;;;;;21.40;13.70;;;;;;;;;;5043298;28;20253;-66
2022/11/09 15:07:50;;;;;;;18.20;11.27;;;;;;;;;;5030101;28;20293;-66
2022/11/09 15:10:36;;;;;;;19.67;14.07;;;;;;;;;;5043172;28;20233;-66
2022/11/09 15:13:34;;;;;;;22.90;14.33;;;;;;;;;;5033330;28;20206;-66